松山國際航空站 - ATIS

METAR RCSS 281330Z 09011KT 9999 FEW020 25/20 Q1009 NOSIG RMK A2982(B)=

站台狀態:Offline
最後更新:2021-09-28 21:30:01